createdAt,value
2023-05-01T00:00:29.783Z,28.24
2023-05-01T00:01:29.876Z,28.49
2023-05-01T00:02:30.038Z,28.98
2023-05-01T00:03:30.340Z,28.88
2023-05-01T00:04:30.397Z,28.47
2023-05-01T00:05:30.589Z,28.10
2023-05-01T00:06:30.921Z,27.50
2023-05-01T00:07:30.548Z,27.34
2023-05-01T00:08:30.645Z,26.90
2023-05-01T00:09:30.821Z,26.59
2023-05-01T00:10:31.174Z,26.43
2023-05-01T00:11:31.007Z,26.30
2023-05-01T00:12:31.116Z,26.20
2023-05-01T00:13:31.393Z,25.84
2023-05-01T00:14:31.392Z,25.97
2023-05-01T00:15:31.437Z,26.10
2023-05-01T00:16:31.581Z,25.80
2023-05-01T00:17:31.655Z,25.21
2023-05-01T00:18:31.749Z,25.33
2023-05-01T00:19:31.900Z,25.42
2023-05-01T00:20:35.093Z,25.67
2023-05-01T00:21:32.138Z,26.12
2023-05-01T00:22:32.630Z,25.70
2023-05-01T00:23:32.349Z,25.56
2023-05-01T00:24:32.478Z,25.44
2023-05-01T00:25:32.612Z,25.55
2023-05-01T00:26:32.733Z,25.45
2023-05-01T00:27:32.888Z,25.10
2023-05-01T00:28:33.066Z,24.90
2023-05-01T00:29:33.100Z,24.56
2023-05-01T00:30:33.233Z,24.55
2023-05-01T00:31:33.613Z,24.36
2023-05-01T00:32:33.626Z,24.49
2023-05-01T00:33:33.588Z,24.63
2023-05-01T00:34:33.690Z,24.76
2023-05-01T00:35:33.806Z,24.66
2023-05-01T00:36:33.915Z,24.63
2023-05-01T00:37:34.188Z,24.56
2023-05-01T00:38:34.232Z,24.66
2023-05-01T00:39:34.313Z,24.60
2023-05-01T00:40:34.393Z,24.81
2023-05-01T00:41:34.553Z,24.62
2023-05-01T00:42:34.672Z,24.50
2023-05-01T00:43:34.864Z,24.35
2023-05-01T00:44:34.936Z,24.04
2023-05-01T00:45:35.322Z,24.07
2023-05-01T00:46:35.292Z,23.81
2023-05-01T00:47:35.323Z,23.45
2023-05-01T00:48:35.489Z,23.99
2023-05-01T00:49:35.641Z,24.29
2023-05-01T00:50:35.632Z,24.62
2023-05-01T00:51:35.952Z,24.95
2023-05-01T00:52:35.985Z,25.18
2023-05-01T00:53:36.443Z,25.42
2023-05-01T00:54:36.183Z,25.56
2023-05-01T00:55:36.735Z,25.59
2023-05-01T00:56:36.437Z,25.50
2023-05-01T00:57:36.554Z,25.48
2023-05-01T00:58:36.667Z,25.61
2023-05-01T00:59:36.820Z,25.56
2023-05-01T01:00:36.987Z,25.83
2023-05-01T01:01:37.244Z,26.03
2023-05-01T01:02:37.339Z,26.13
2023-05-01T01:03:37.411Z,26.03
2023-05-01T01:04:37.513Z,25.81
2023-05-01T01:05:37.615Z,25.80
2023-05-01T01:06:37.719Z,26.03
2023-05-01T01:07:37.821Z,26.26
2023-05-01T01:08:37.993Z,26.54
2023-05-01T01:09:38.123Z,26.53
2023-05-01T01:10:38.196Z,26.56
2023-05-01T01:11:38.303Z,26.63
2023-05-01T01:12:38.608Z,26.61
2023-05-01T01:13:38.664Z,26.83
2023-05-01T01:14:38.697Z,26.83
2023-05-01T01:15:38.829Z,26.83
2023-05-01T01:16:38.966Z,26.90
2023-05-01T01:17:39.202Z,26.80
2023-05-01T01:18:39.191Z,26.92
2023-05-01T01:19:39.426Z,26.90
2023-05-01T01:20:39.649Z,27.18
2023-05-01T01:21:39.603Z,27.53
2023-05-01T01:22:39.736Z,27.62
2023-05-01T01:23:39.831Z,27.57
2023-05-01T01:24:39.953Z,27.81
2023-05-01T01:25:40.266Z,27.64
2023-05-01T01:26:40.226Z,27.61
2023-05-01T01:27:40.351Z,27.68
2023-05-01T01:28:40.525Z,27.68
2023-05-01T01:29:40.659Z,27.44
2023-05-01T01:30:40.729Z,27.46
2023-05-01T01:31:41.046Z,27.62
2023-05-01T01:32:41.050Z,27.83
2023-05-01T01:33:41.195Z,27.81
2023-05-01T01:34:41.222Z,27.46
2023-05-01T01:35:41.352Z,27.09
2023-05-01T01:36:41.465Z,26.31
2023-05-01T01:37:41.568Z,25.19
2023-05-01T01:38:41.752Z,24.84
2023-05-01T01:39:41.835Z,25.65
2023-05-01T01:40:41.960Z,25.28
2023-05-01T01:41:42.043Z,26.03
2023-05-01T01:42:42.218Z,27.25
2023-05-01T01:43:42.355Z,27.90
2023-05-01T01:44:42.674Z,28.41
2023-05-01T01:45:42.552Z,28.58
2023-05-01T01:46:42.841Z,28.10
2023-05-01T01:47:42.883Z,27.61
2023-05-01T01:48:42.909Z,26.39
2023-05-01T01:49:43.174Z,25.91
2023-05-01T01:50:43.154Z,25.64
2023-05-01T01:51:43.270Z,22.45
2023-05-01T01:52:43.441Z,23.35
2023-05-01T01:53:43.517Z,23.35
2023-05-01T01:54:43.673Z,23.92
2023-05-01T01:55:43.766Z,23.51
2023-05-01T01:56:43.861Z,22.38
2023-05-01T01:57:43.975Z,22.52
2023-05-01T01:58:44.146Z,23.91
2023-05-01T01:59:44.280Z,24.91
2023-05-01T02:00:44.346Z,25.36
2023-05-01T02:01:44.581Z,25.75
2023-05-01T02:02:44.849Z,26.33
2023-05-01T02:03:44.880Z,26.43
2023-05-01T02:04:44.846Z,26.68
2023-05-01T02:05:45.052Z,27.25
2023-05-01T02:06:45.186Z,27.46
2023-05-01T02:07:45.223Z,27.57
2023-05-01T02:08:45.338Z,27.21
2023-05-01T02:09:45.533Z,27.28
2023-05-01T02:10:45.569Z,27.06
2023-05-01T02:11:45.749Z,27.25
2023-05-01T02:12:45.798Z,26.66
2023-05-01T02:13:45.974Z,26.65
2023-05-01T02:14:46.031Z,25.33
2023-05-01T02:15:46.188Z,25.44
2023-05-01T02:16:46.245Z,25.86
2023-05-01T02:17:46.574Z,26.21
2023-05-01T02:18:46.676Z,25.61
2023-05-01T02:19:46.661Z,25.16
2023-05-01T02:20:46.785Z,23.22
2023-05-01T02:21:46.982Z,24.25
2023-05-01T02:22:46.991Z,24.22
2023-05-01T02:23:47.192Z,24.66
2023-05-01T02:24:47.273Z,21.91
2023-05-01T02:25:47.496Z,21.94
2023-05-01T02:26:47.467Z,20.91
2023-05-01T02:27:47.600Z,20.81
2023-05-01T02:28:47.792Z,21.89
2023-05-01T02:29:47.860Z,22.55
2023-05-01T02:30:47.969Z,21.27
2023-05-01T02:31:48.212Z,21.75
2023-05-01T02:32:48.452Z,21.04
2023-05-01T02:33:48.337Z,21.01
2023-05-01T02:34:48.556Z,21.55
2023-05-01T02:35:48.596Z,22.24
2023-05-01T02:36:48.724Z,23.76
2023-05-01T02:37:48.836Z,24.84
2023-05-01T02:38:48.947Z,24.48
2023-05-01T02:39:49.241Z,24.76
2023-05-01T02:40:49.335Z,24.69
2023-05-01T02:41:49.363Z,24.56
2023-05-01T02:42:49.489Z,24.18
2023-05-01T02:43:49.624Z,24.50
2023-05-01T02:44:49.838Z,24.17
2023-05-01T02:45:49.909Z,23.22
2023-05-01T02:46:50.078Z,22.87
2023-05-01T02:47:50.158Z,22.89
2023-05-01T02:48:50.245Z,21.82
2023-05-01T02:49:50.561Z,21.33
2023-05-01T02:50:50.569Z,21.82
2023-05-01T02:51:50.699Z,21.21
2023-05-01T02:52:50.785Z,20.40
2023-05-01T02:53:50.974Z,19.90
2023-05-01T02:54:51.050Z,19.62
2023-05-01T02:55:51.166Z,20.15
2023-05-01T02:56:51.335Z,20.36
2023-05-01T02:57:51.432Z,20.42
2023-05-01T02:58:51.701Z,19.46
2023-05-01T02:59:51.752Z,19.17
2023-05-01T03:00:51.917Z,18.97
2023-05-01T03:01:52.085Z,19.48
2023-05-01T03:02:52.141Z,19.26
2023-05-01T03:03:52.325Z,18.68
2023-05-01T03:04:52.442Z,18.19
2023-05-01T03:05:52.594Z,18.13
2023-05-01T03:06:52.752Z,17.84
2023-05-01T03:07:52.837Z,17.72
2023-05-01T03:08:53.211Z,17.61
2023-05-01T03:09:53.233Z,17.65
2023-05-01T03:10:53.168Z,17.96
2023-05-01T03:11:53.399Z,19.03
2023-05-01T03:12:53.531Z,18.66
2023-05-01T03:13:53.568Z,19.51
2023-05-01T03:14:53.790Z,20.25
2023-05-01T03:15:53.898Z,20.28
2023-05-01T03:16:54.155Z,20.21
2023-05-01T03:17:54.129Z,20.68
2023-05-01T03:18:54.261Z,21.10
2023-05-01T03:19:54.699Z,21.51
2023-05-01T03:20:54.505Z,21.73
2023-05-01T03:21:54.650Z,22.03
2023-05-01T03:22:54.836Z,22.69
2023-05-01T03:23:54.930Z,23.43
2023-05-01T03:24:55.001Z,23.59
2023-05-01T03:25:55.102Z,23.76
2023-05-01T03:26:55.245Z,24.24
2023-05-01T03:27:55.556Z,24.31
2023-05-01T03:28:55.568Z,24.45
2023-05-01T03:29:55.979Z,24.65
2023-05-01T03:30:55.769Z,25.04
2023-05-01T03:31:55.976Z,25.09
2023-05-01T03:32:56.063Z,25.59
2023-05-01T03:33:56.174Z,25.64
2023-05-01T03:34:56.391Z,25.83
2023-05-01T03:35:56.424Z,25.92
2023-05-01T03:36:56.606Z,25.73
2023-05-01T03:37:56.893Z,25.36
2023-05-01T03:38:56.808Z,25.28
2023-05-01T03:39:57.320Z,25.27
2023-05-01T03:40:57.120Z,25.30
2023-05-01T03:41:57.604Z,25.51
2023-05-01T03:42:57.548Z,25.45
2023-05-01T03:43:57.509Z,25.18
2023-05-01T03:44:57.621Z,25.09
2023-05-01T03:45:57.777Z,24.87
2023-05-01T03:46:57.926Z,24.91
2023-05-01T03:47:58.131Z,24.59
2023-05-01T03:48:58.150Z,24.60
2023-05-01T03:49:58.537Z,25.18
2023-05-01T03:50:58.524Z,25.19
2023-05-01T03:51:58.864Z,24.00
2023-05-01T03:52:58.790Z,21.51
2023-05-01T03:53:58.834Z,20.36
2023-05-01T03:54:58.914Z,20.77
2023-05-01T03:55:59.131Z,20.32
2023-05-01T03:56:59.184Z,19.58
2023-05-01T03:57:59.276Z,19.73
2023-05-01T03:58:59.424Z,20.01
2023-05-01T03:59:59.567Z,19.92
2023-05-01T04:00:59.753Z,19.39
2023-05-01T04:01:59.969Z,19.37
2023-05-01T04:03:00.016Z,19.58
2023-05-01T04:04:00.178Z,19.92
2023-05-01T04:05:00.231Z,20.48
2023-05-01T04:06:00.305Z,21.36
2023-05-01T04:07:00.423Z,21.67
2023-05-01T04:08:00.532Z,21.60
2023-05-01T04:09:00.731Z,21.06
2023-05-01T04:10:00.859Z,21.36
2023-05-01T04:11:00.894Z,20.79
2023-05-01T04:12:01.040Z,19.17
2023-05-01T04:13:01.219Z,19.30
2023-05-01T04:14:01.344Z,17.34
2023-05-01T04:15:01.520Z,15.91
2023-05-01T04:16:01.689Z,15.44
2023-05-01T04:17:01.772Z,14.66
2023-05-01T04:18:02.006Z,14.81
2023-05-01T04:19:02.057Z,15.12
2023-05-01T04:20:02.184Z,16.50
2023-05-01T04:21:02.253Z,17.18
2023-05-01T04:22:02.429Z,17.78
2023-05-01T04:23:02.580Z,17.98
2023-05-01T04:24:02.719Z,17.92
2023-05-01T04:25:02.824Z,18.42
2023-05-01T04:26:02.862Z,18.58
2023-05-01T04:27:03.074Z,19.14
2023-05-01T04:28:03.160Z,19.39
2023-05-01T04:29:03.209Z,19.81
2023-05-01T04:30:03.466Z,19.77
2023-05-01T04:31:03.492Z,19.81
2023-05-01T04:32:03.616Z,19.92
2023-05-01T04:33:03.789Z,19.96
2023-05-01T04:34:03.780Z,19.96
2023-05-01T04:35:04.329Z,19.92
2023-05-01T04:36:04.022Z,20.23
2023-05-01T04:37:04.156Z,20.21
2023-05-01T04:38:04.230Z,20.25
2023-05-01T04:39:04.331Z,20.13
2023-05-01T04:40:04.577Z,20.40
2023-05-01T04:41:04.556Z,20.89
2023-05-01T04:42:04.714Z,21.27
2023-05-01T04:43:04.800Z,21.60
2023-05-01T04:44:05.173Z,21.31
2023-05-01T04:45:05.070Z,20.97
2023-05-01T04:46:05.507Z,20.91
2023-05-01T04:47:05.491Z,20.62
2023-05-01T04:48:05.438Z,20.87
2023-05-01T04:49:05.655Z,21.01
2023-05-01T04:50:05.900Z,20.93
2023-05-01T04:51:05.830Z,21.21
2023-05-01T04:52:06.133Z,20.64
2023-05-01T04:53:06.114Z,21.18
2023-05-01T04:54:06.266Z,21.38
2023-05-01T04:55:06.373Z,21.29
2023-05-01T04:56:06.523Z,21.10
2023-05-01T04:57:06.623Z,21.10
2023-05-01T04:58:06.759Z,20.91
2023-05-01T04:59:06.901Z,21.36
2023-05-01T05:00:06.988Z,21.75
2023-05-01T05:01:07.164Z,22.24
2023-05-01T05:02:07.253Z,22.48
2023-05-01T05:03:07.613Z,22.19
2023-05-01T05:04:07.585Z,21.78
2023-05-01T05:05:07.662Z,21.14
2023-05-01T05:06:07.859Z,20.66
2023-05-01T05:07:07.889Z,19.35
2023-05-01T05:08:08.099Z,18.93
2023-05-01T05:09:08.205Z,18.75
2023-05-01T05:10:08.382Z,18.23
2023-05-01T05:11:08.561Z,16.77
2023-05-01T05:12:08.613Z,16.14
2023-05-01T05:13:08.728Z,15.11
2023-05-01T05:14:08.823Z,14.48
2023-05-01T05:15:08.936Z,14.32
2023-05-01T05:16:09.082Z,15.04
2023-05-01T05:17:09.378Z,15.57
2023-05-01T05:18:09.519Z,15.46
2023-05-01T05:19:09.498Z,15.53
2023-05-01T05:20:09.601Z,15.52
2023-05-01T05:21:09.865Z,15.73
2023-05-01T05:22:09.946Z,16.13
2023-05-01T05:23:09.990Z,16.59
2023-05-01T05:24:10.233Z,16.81
2023-05-01T05:25:10.272Z,17.00
2023-05-01T05:26:10.427Z,17.08
2023-05-01T05:27:10.578Z,17.61
2023-05-01T05:28:10.699Z,17.42
2023-05-01T05:29:11.096Z,17.63
2023-05-01T05:30:10.992Z,18.23
2023-05-01T05:31:11.086Z,18.83
2023-05-01T05:32:11.234Z,19.35
2023-05-01T05:33:11.347Z,19.41
2023-05-01T05:34:11.462Z,19.41
2023-05-01T05:35:11.516Z,19.21
2023-05-01T05:36:11.660Z,19.03
2023-05-01T05:37:11.850Z,18.76
2023-05-01T05:38:12.016Z,18.53
2023-05-01T05:39:12.091Z,18.32
2023-05-01T05:40:12.202Z,18.10
2023-05-01T05:41:12.437Z,17.40
2023-05-01T05:42:12.496Z,16.72
2023-05-01T05:43:12.687Z,16.81
2023-05-01T05:44:12.933Z,16.91
2023-05-01T05:45:13.016Z,16.84
2023-05-01T05:46:13.065Z,16.76
2023-05-01T05:47:13.207Z,16.85
2023-05-01T05:48:13.747Z,16.78
2023-05-01T05:49:13.425Z,16.78
2023-05-01T05:50:13.717Z,16.72
2023-05-01T05:51:13.713Z,17.08
2023-05-01T05:52:13.873Z,17.44
2023-05-01T05:53:14.011Z,17.57
2023-05-01T05:54:14.062Z,18.19
2023-05-01T05:55:14.494Z,18.42
2023-05-01T05:56:14.348Z,18.10
2023-05-01T05:57:14.460Z,17.75
2023-05-01T05:58:14.643Z,17.40
2023-05-01T05:59:16.701Z,17.90
2023-05-01T06:00:15.515Z,18.92
2023-05-01T06:01:15.004Z,19.25
2023-05-01T06:02:15.159Z,19.30
2023-05-01T06:03:15.349Z,19.09
2023-05-01T06:04:15.360Z,19.16
2023-05-01T06:05:15.609Z,18.88
2023-05-01T06:06:15.669Z,18.55
2023-05-01T06:07:15.731Z,18.83
2023-05-01T06:08:15.910Z,18.71
2023-05-01T06:09:16.031Z,17.76
2023-05-01T06:10:16.480Z,17.96
2023-05-01T06:11:16.424Z,16.85
2023-05-01T06:12:16.513Z,15.88
2023-05-01T06:13:16.526Z,15.18
2023-05-01T06:14:16.679Z,15.05
2023-05-01T06:15:16.912Z,14.98
2023-05-01T06:16:16.910Z,15.18
2023-05-01T06:17:17.129Z,16.14
2023-05-01T06:18:17.275Z,17.45
2023-05-01T06:19:17.340Z,19.17
2023-05-01T06:20:17.469Z,20.40
2023-05-01T06:21:17.607Z,21.01
2023-05-01T06:22:17.663Z,21.42
2023-05-01T06:23:17.831Z,22.62
2023-05-01T06:24:18.053Z,23.89
2023-05-01T06:25:18.117Z,25.58
2023-05-01T06:26:18.204Z,25.68
2023-05-01T06:27:18.285Z,25.22
2023-05-01T06:28:18.650Z,24.06
2023-05-01T06:29:18.842Z,24.15
2023-05-01T06:30:18.674Z,24.50
2023-05-01T06:31:18.910Z,23.56
2023-05-01T06:32:18.977Z,23.09
2023-05-01T06:33:19.148Z,22.55
2023-05-01T06:34:19.500Z,22.69
2023-05-01T06:35:19.573Z,23.40
2023-05-01T06:36:19.760Z,22.67
2023-05-01T06:37:19.665Z,22.67
2023-05-01T06:38:19.774Z,24.92
2023-05-01T06:39:20.122Z,26.12
2023-05-01T06:40:20.555Z,27.62
2023-05-01T06:41:20.416Z,28.58
2023-05-01T06:42:20.317Z,28.78
2023-05-01T06:43:20.611Z,27.83
2023-05-01T06:44:21.292Z,26.65
2023-05-01T06:45:20.848Z,26.58
2023-05-01T06:46:21.253Z,26.80
2023-05-01T06:47:20.951Z,28.37
2023-05-01T06:48:21.256Z,28.86
2023-05-01T06:49:21.139Z,30.84
2023-05-01T06:50:21.268Z,32.36
2023-05-01T06:51:21.370Z,33.15
2023-05-01T06:52:21.516Z,33.08
2023-05-01T06:53:22.013Z,32.61
2023-05-01T06:54:21.758Z,31.19
2023-05-01T06:55:21.863Z,29.50
2023-05-01T06:56:22.026Z,29.82
2023-05-01T06:57:22.292Z,30.29
2023-05-01T06:58:24.303Z,31.14
2023-05-01T06:59:22.351Z,31.95
2023-05-01T07:00:22.559Z,32.59
2023-05-01T07:01:22.752Z,33.13
2023-05-01T07:02:22.927Z,33.10
2023-05-01T07:03:23.403Z,32.95
2023-05-01T07:04:23.027Z,32.56
2023-05-01T07:05:25.971Z,33.60
2023-05-01T07:06:23.412Z,34.37
2023-05-01T07:07:23.465Z,34.89
2023-05-01T07:08:23.542Z,33.50
2023-05-01T07:09:23.674Z,31.59
2023-05-01T07:10:23.798Z,29.69
2023-05-01T07:11:24.249Z,30.55
2023-05-01T07:12:24.065Z,30.91
2023-05-01T07:13:24.173Z,29.88
2023-05-01T07:14:24.378Z,30.01
2023-05-01T07:15:24.478Z,30.82
2023-05-01T07:16:24.577Z,31.03
2023-05-01T07:17:24.906Z,32.39
2023-05-01T07:18:24.766Z,31.59
2023-05-01T07:19:24.875Z,31.66
2023-05-01T07:20:25.036Z,29.63
2023-05-01T07:21:25.432Z,30.51
2023-05-01T07:22:25.392Z,29.92
2023-05-01T07:23:25.382Z,29.22
2023-05-01T07:24:25.520Z,30.18
2023-05-01T07:25:25.691Z,32.69
2023-05-01T07:26:25.815Z,34.10
2023-05-01T07:27:25.876Z,34.07
2023-05-01T07:28:26.015Z,33.90
2023-05-01T07:29:26.249Z,31.14
2023-05-01T07:30:26.370Z,28.54
2023-05-01T07:31:26.544Z,27.13
2023-05-01T07:32:26.560Z,26.58
2023-05-01T07:33:26.743Z,26.99
2023-05-01T07:34:26.850Z,27.18
2023-05-01T07:35:26.975Z,24.50
2023-05-01T07:36:27.134Z,24.70
2023-05-01T07:37:27.300Z,23.76
2023-05-01T07:38:27.508Z,25.61
2023-05-01T07:39:27.509Z,28.12
2023-05-01T07:40:27.838Z,30.40
2023-05-01T07:41:27.861Z,34.12
2023-05-01T07:42:27.874Z,35.75
2023-05-01T07:43:28.021Z,36.55
2023-05-01T07:44:28.165Z,37.73
2023-05-01T07:45:28.577Z,39.47
2023-05-01T07:46:28.676Z,40.61
2023-05-01T07:47:28.835Z,40.57
2023-05-01T07:48:28.752Z,34.63
2023-05-01T07:49:28.878Z,31.28
2023-05-01T07:50:29.151Z,30.80
2023-05-01T07:51:29.518Z,26.71
2023-05-01T07:52:29.317Z,31.83
2023-05-01T07:53:29.400Z,33.96
2023-05-01T07:54:29.496Z,33.08
2023-05-01T07:55:29.612Z,35.69
2023-05-01T07:56:29.698Z,33.98
2023-05-01T07:57:30.023Z,33.05
2023-05-01T07:58:29.992Z,38.42
2023-05-01T07:59:30.333Z,45.09
2023-05-01T08:00:30.437Z,50.76
2023-05-01T08:01:30.334Z,55.81
2023-05-01T08:02:30.833Z,60.55
2023-05-01T08:03:30.899Z,62.53
2023-05-01T08:04:30.763Z,63.34
2023-05-01T08:05:30.855Z,53.43
2023-05-01T08:06:30.993Z,56.71
2023-05-01T08:07:31.135Z,57.37
2023-05-01T08:08:31.270Z,59.91
2023-05-01T08:09:31.448Z,57.84
2023-05-01T08:10:31.520Z,62.58
2023-05-01T08:11:31.694Z,61.26
2023-05-01T08:12:31.975Z,64.21
2023-05-01T08:13:31.965Z,67.24
2023-05-01T08:14:31.954Z,65.92
2023-05-01T08:15:32.143Z,63.72
2023-05-01T08:16:32.252Z,67.13
2023-05-01T08:17:32.408Z,70.15
2023-05-01T08:18:32.476Z,71.59
2023-05-01T08:19:32.877Z,72.77
2023-05-01T08:20:32.766Z,69.63
2023-05-01T08:21:32.824Z,71.35
2023-05-01T08:22:33.912Z,72.96
2023-05-01T08:23:33.085Z,74.11
2023-05-01T08:24:33.223Z,74.11
2023-05-01T08:25:33.391Z,67.72
2023-05-01T08:26:33.480Z,68.05
2023-05-01T08:27:33.620Z,64.55
2023-05-01T08:28:33.810Z,63.87
2023-05-01T08:29:33.838Z,62.72
2023-05-01T08:30:33.967Z,58.41
2023-05-01T08:31:34.558Z,57.18
2023-05-01T08:32:34.402Z,61.53
2023-05-01T08:33:34.397Z,57.69
2023-05-01T08:34:34.564Z,56.03
2023-05-01T08:35:34.666Z,51.09
2023-05-01T08:36:34.796Z,50.63
2023-05-01T08:37:34.873Z,51.98
2023-05-01T08:38:35.047Z,49.35
2023-05-01T08:39:35.163Z,48.53
2023-05-01T08:40:36.025Z,45.83
2023-05-01T08:41:35.428Z,47.03
2023-05-01T08:42:35.540Z,49.30
2023-05-01T08:43:35.643Z,49.88
2023-05-01T08:44:35.760Z,48.06
2023-05-01T08:45:35.911Z,40.53
2023-05-01T08:46:36.082Z,40.42
2023-05-01T08:47:36.147Z,44.06
2023-05-01T08:48:36.345Z,44.85
2023-05-01T08:49:36.416Z,45.00
2023-05-01T08:50:36.605Z,47.11
2023-05-01T08:51:36.702Z,50.60
2023-05-01T08:52:36.808Z,50.27
2023-05-01T08:53:37.002Z,49.82
2023-05-01T08:54:37.103Z,50.15
2023-05-01T08:55:37.288Z,50.12
2023-05-01T08:56:37.411Z,49.88
2023-05-01T08:57:37.490Z,46.39
2023-05-01T08:58:37.712Z,48.72
2023-05-01T08:59:37.774Z,52.40
2023-05-01T09:00:37.912Z,52.86
2023-05-01T09:01:38.321Z,55.11
2023-05-01T09:02:38.273Z,53.67
2023-05-01T09:03:38.456Z,53.60
2023-05-01T09:04:38.446Z,53.67
2023-05-01T09:05:38.600Z,53.77
2023-05-01T09:06:38.909Z,53.40
2023-05-01T09:07:38.867Z,51.56
2023-05-01T09:08:39.077Z,48.64
2023-05-01T09:09:39.142Z,48.47
2023-05-01T09:10:39.228Z,50.06
2023-05-01T09:11:39.418Z,52.66
2023-05-01T09:12:39.541Z,53.74
2023-05-01T09:13:39.689Z,55.48
2023-05-01T09:14:39.906Z,56.45
2023-05-01T09:15:39.915Z,59.23
2023-05-01T09:16:40.185Z,61.26
2023-05-01T09:17:40.355Z,58.24
2023-05-01T09:18:40.288Z,57.84
2023-05-01T09:19:40.731Z,56.64
2023-05-01T09:20:40.646Z,60.68
2023-05-01T09:21:40.696Z,59.78
2023-05-01T09:22:40.808Z,56.52
2023-05-01T09:23:41.016Z,54.37
2023-05-01T09:24:41.101Z,55.48
2023-05-01T09:25:41.220Z,56.37
2023-05-01T09:26:41.323Z,55.70
2023-05-01T09:27:41.539Z,57.72
2023-05-01T09:28:41.690Z,55.85
2023-05-01T09:29:41.715Z,57.41
2023-05-01T09:30:41.861Z,56.71
2023-05-01T09:31:42.047Z,57.21
2023-05-01T09:32:42.805Z,54.05
2023-05-01T09:33:42.304Z,54.40
2023-05-01T09:34:42.378Z,55.55
2023-05-01T09:35:42.551Z,55.11
2023-05-01T09:36:42.757Z,55.01
2023-05-01T09:37:42.769Z,54.40
2023-05-01T09:38:43.409Z,53.53
2023-05-01T09:39:43.423Z,54.90
2023-05-01T09:40:43.272Z,56.07
2023-05-01T09:41:43.328Z,53.77
2023-05-01T09:42:43.424Z,51.69
2023-05-01T09:43:43.828Z,50.45
2023-05-01T09:44:43.686Z,51.34
2023-05-01T09:45:43.863Z,51.82
2023-05-01T09:46:44.071Z,51.63
2023-05-01T09:47:44.233Z,51.12
2023-05-01T09:48:44.216Z,52.14
2023-05-01T09:49:44.367Z,50.60
2023-05-01T09:50:44.695Z,48.72
2023-05-01T09:51:44.632Z,48.00
2023-05-01T09:52:44.748Z,47.89
2023-05-01T09:53:44.931Z,48.78
2023-05-01T09:54:45.385Z,49.47
2023-05-01T09:55:45.295Z,47.95
2023-05-01T09:56:45.333Z,48.33
2023-05-01T09:57:45.360Z,48.95
2023-05-01T09:58:45.697Z,46.18
2023-05-01T09:59:45.688Z,44.01
2023-05-01T10:00:45.790Z,43.33
2023-05-01T10:01:46.270Z,46.03
2023-05-01T10:02:46.091Z,46.75
2023-05-01T10:03:46.370Z,45.83
2023-05-01T10:04:46.300Z,45.78
2023-05-01T10:05:46.442Z,44.90
2023-05-01T10:06:46.614Z,45.14
2023-05-01T10:07:46.706Z,40.61
2023-05-01T10:08:47.015Z,40.11
2023-05-01T10:09:47.014Z,43.20
2023-05-01T10:10:47.267Z,44.47
2023-05-01T10:11:47.683Z,45.68
2023-05-01T10:12:47.392Z,45.44
2023-05-01T10:13:47.521Z,45.19
2023-05-01T10:14:48.212Z,46.03
2023-05-01T10:15:47.936Z,46.85
2023-05-01T10:16:48.137Z,47.67
2023-05-01T10:17:48.535Z,47.43
2023-05-01T10:18:48.740Z,45.53
2023-05-01T10:19:50.892Z,42.33
2023-05-01T10:20:48.514Z,37.20
2023-05-01T10:21:48.824Z,39.03
2023-05-01T10:22:49.565Z,40.15
2023-05-01T10:23:48.807Z,42.16
2023-05-01T10:24:49.072Z,42.24
2023-05-01T10:25:49.079Z,42.89
2023-05-01T10:26:49.153Z,40.22
2023-05-01T10:27:49.328Z,39.32
2023-05-01T10:28:49.585Z,40.81
2023-05-01T10:29:49.951Z,41.09
2023-05-01T10:30:49.727Z,41.25
2023-05-01T10:31:49.844Z,39.17
2023-05-01T10:32:50.013Z,40.11
2023-05-01T10:33:50.297Z,41.49
2023-05-01T10:34:50.248Z,40.26
2023-05-01T10:35:50.364Z,38.25
2023-05-01T10:36:50.539Z,38.42
2023-05-01T10:37:50.768Z,39.32
2023-05-01T10:38:51.113Z,38.28
2023-05-01T10:39:50.923Z,39.39
2023-05-01T10:40:51.418Z,38.28
2023-05-01T10:41:51.197Z,40.34
2023-05-01T10:42:51.408Z,41.62
2023-05-01T10:43:51.415Z,42.58
2023-05-01T10:44:51.594Z,43.64
2023-05-01T10:45:51.704Z,42.16
2023-05-01T10:46:51.879Z,38.25
2023-05-01T10:47:51.954Z,40.97
2023-05-01T10:48:52.084Z,42.28
2023-05-01T10:49:52.172Z,42.46
2023-05-01T10:50:52.280Z,43.37
2023-05-01T10:51:52.409Z,42.97
2023-05-01T10:52:52.597Z,44.76
2023-05-01T10:53:52.679Z,44.57
2023-05-01T10:54:53.067Z,46.54
2023-05-01T10:55:52.880Z,47.62
2023-05-01T10:56:52.986Z,49.07
2023-05-01T10:57:53.135Z,48.72
2023-05-01T10:58:53.261Z,47.65
2023-05-01T10:59:53.891Z,45.73
2023-05-01T11:00:53.566Z,43.74
2023-05-01T11:01:54.202Z,44.90
2023-05-01T11:02:54.027Z,47.38
2023-05-01T11:03:53.951Z,46.64
2023-05-01T11:04:54.407Z,45.63
2023-05-01T11:05:54.209Z,48.61
2023-05-01T11:06:54.368Z,49.01
2023-05-01T11:07:54.482Z,49.85
2023-05-01T11:08:54.660Z,51.12
2023-05-01T11:09:55.236Z,53.20
2023-05-01T11:10:54.980Z,54.29
2023-05-01T11:11:54.998Z,57.25
2023-05-01T11:12:55.147Z,57.92
2023-05-01T11:13:55.276Z,56.52
2023-05-01T11:14:56.127Z,54.51
2023-05-01T11:15:55.745Z,52.89
2023-05-01T11:16:55.695Z,55.01
2023-05-01T11:17:55.865Z,55.37
2023-05-01T11:18:55.882Z,53.53
2023-05-01T11:19:56.030Z,59.57
2023-05-01T11:20:56.181Z,62.67
2023-05-01T11:21:56.376Z,64.01
2023-05-01T11:22:56.510Z,68.05
2023-05-01T11:23:56.507Z,68.95
2023-05-01T11:24:57.166Z,65.15
2023-05-01T11:25:56.974Z,60.86
2023-05-01T11:26:56.900Z,56.83
2023-05-01T11:27:57.063Z,57.76
2023-05-01T11:28:57.271Z,61.44
2023-05-01T11:29:57.315Z,62.53
2023-05-01T11:30:57.502Z,64.95
2023-05-01T11:31:57.546Z,66.23
2023-05-01T11:32:57.725Z,66.81
2023-05-01T11:33:57.810Z,66.49
2023-05-01T11:34:58.280Z,65.87
2023-05-01T11:35:58.291Z,65.46
2023-05-01T11:36:58.467Z,64.40
2023-05-01T11:37:58.326Z,63.91
2023-05-01T11:38:58.751Z,62.63
2023-05-01T11:39:58.581Z,62.26
2023-05-01T11:40:58.848Z,59.69
2023-05-01T11:41:58.945Z,57.84
2023-05-01T11:42:59.260Z,57.25
2023-05-01T11:43:59.410Z,56.33
2023-05-01T11:44:59.440Z,55.88
2023-05-01T11:45:59.426Z,56.29
2023-05-01T11:46:59.441Z,54.61
2023-05-01T11:48:02.900Z,60.21
2023-05-01T11:48:59.709Z,65.00
2023-05-01T11:49:59.858Z,69.46
2023-05-01T11:50:59.987Z,72.58
2023-05-01T11:52:00.123Z,75.58
2023-05-01T11:53:00.206Z,76.06
2023-05-01T11:54:00.384Z,73.53
2023-05-01T11:55:00.648Z,68.72
2023-05-01T11:56:00.561Z,67.29
2023-05-01T11:57:00.685Z,66.60
2023-05-01T11:58:00.843Z,69.17
2023-05-01T11:59:00.948Z,62.96
2023-05-01T12:00:01.133Z,63.29
2023-05-01T12:01:01.286Z,63.72
2023-05-01T12:02:01.381Z,65.92
2023-05-01T12:03:01.632Z,73.46
2023-05-01T12:04:01.652Z,79.06
2023-05-01T12:05:01.993Z,81.51
2023-05-01T12:06:01.863Z,75.51
2023-05-01T12:07:01.949Z,80.12
2023-05-01T12:08:02.084Z,81.67
2023-05-01T12:09:02.185Z,81.04
2023-05-01T12:10:02.318Z,82.96
2023-05-01T12:11:02.489Z,82.64
2023-05-01T12:12:02.568Z,80.73
2023-05-01T12:13:02.783Z,77.32
2023-05-01T12:14:02.891Z,80.58
2023-05-01T12:15:03.024Z,83.38
2023-05-01T12:16:03.130Z,83.79
2023-05-01T12:17:03.347Z,81.75
2023-05-01T12:18:03.521Z,83.38
2023-05-01T12:19:03.506Z,81.36
2023-05-01T12:20:03.680Z,80.42
2023-05-01T12:21:03.762Z,74.90
2023-05-01T12:22:03.880Z,71.65
2023-05-01T12:23:03.978Z,68.27
2023-05-01T12:24:04.152Z,72.64
2023-05-01T12:25:04.428Z,70.15
2023-05-01T12:26:04.439Z,73.46
2023-05-01T12:27:04.481Z,70.86
2023-05-01T12:28:04.792Z,69.06
2023-05-01T12:29:04.759Z,67.18
2023-05-01T12:30:04.913Z,62.07
2023-05-01T12:31:05.578Z,58.08
2023-05-01T12:32:05.289Z,62.91
2023-05-01T12:33:05.309Z,63.67
2023-05-01T12:34:05.428Z,58.86
2023-05-01T12:35:05.541Z,52.99
2023-05-01T12:36:05.709Z,53.47
2023-05-01T12:37:05.749Z,56.71
2023-05-01T12:38:05.904Z,56.45
2023-05-01T12:39:06.239Z,52.43
2023-05-01T12:40:06.147Z,53.30
2023-05-01T12:41:06.355Z,53.20
2023-05-01T12:42:06.444Z,50.85
2023-05-01T12:43:06.550Z,51.91
2023-05-01T12:44:06.686Z,59.52
2023-05-01T12:45:06.907Z,61.57
2023-05-01T12:46:07.123Z,63.77
2023-05-01T12:47:07.117Z,65.56
2023-05-01T12:48:07.308Z,66.76
2023-05-01T12:49:07.320Z,68.05
2023-05-01T12:50:07.489Z,76.26
2023-05-01T12:51:07.606Z,82.07
2023-05-01T12:52:07.769Z,88.56
2023-05-01T12:53:07.866Z,88.65
2023-05-01T12:54:08.032Z,85.24